Clear Sky Current Weather (METAR) For Bournemouth Airport

All times on the weather descriptions are local

Observed at 02:20 - (38 mins ago)

Clear Sky

9°C

Clear Sky
Clouds:
Wind: 300° at 05 knots
Visibility: Greater than 10km
QNH: 1017
Dew Point: 7°C
Runway in Use: Likely Runway 26

Sunrise Today: 05:29
Sunset Today: 20:58

Forecast Weather (TAF) For Bournemouth Airport

Issued at 01:00 - (22 hrs 1 min ago)


Runway in Use: Unable to determine, wind is clam

Forecast valid until 01:00 on Friday

METAR/TAF RAW METAR / TAF

EGHH 300120Z 30005KT CAVOK 09/07 Q1017

Weather Widget

Put weather from any of our airports on your website with our weather widget.

Find Another Search

Airport Search


Please Wait Please Wait - Loading
Close
Close

Login

Username:

Password:

Remember Me:

Remember me on this computer

Forgotten your password? Get a reset password sent to your registered e-mail address

Close

User Private Message

Subject:

Message: